Time;durP1;ratioP1;P1;durP2;ratioP2;P2;SDS_P1;SDS_P2;PMS_P1;PMS_P2;Temp;Humidity;BMP_temperature;BMP_pressure;BME280_temperature;BME280_humidity;BME280_pressure;Samples;Min_cycle;Max_cycle;Signal;HPM_P1;HPM_P2
2021/04/05 00:00:33;;;;;;;14.07;5.72;;;;;;;;;;4932343;29;20431;-62
2021/04/05 00:02:58;;;;;;;9.93;6.35;;;;;;;;;;4932137;29;20028;-62
2021/04/05 00:05:23;;;;;;;15.68;6.68;;;;;;;;;;4934728;28;20023;-63
2021/04/05 00:07:49;;;;;;;8.07;5.30;;;;;;;;;;4931821;29;20110;-63
2021/04/05 00:10:17;;;;;;;12.38;4.40;;;;;;;;;;4935420;29;20387;-62
2021/04/05 00:12:42;;;;;;;17.48;6.95;;;;;;;;;;4933388;28;20039;-65
2021/04/05 00:15:08;;;;;;;15.57;6.03;;;;;;;;;;4935082;29;20040;-65
2021/04/05 00:17:34;;;;;;;10.82;5.45;;;;;;;;;;4934501;29;20071;-65
2021/04/05 00:20:00;;;;;;;13.38;6.70;;;;;;;;;;4936754;29;20027;-65
2021/04/05 00:22:25;;;;;;;12.32;4.78;;;;;;;;;;4938234;28;20036;-65
2021/04/05 00:24:51;;;;;;;18.00;5.43;;;;;;;;;;4931895;29;20379;-65
2021/04/05 00:27:16;;;;;;;16.85;6.60;;;;;;;;;;4934227;29;20168;-65
2021/04/05 00:29:41;;;;;;;11.02;6.35;;;;;;;;;;4935571;29;20089;-65
2021/04/05 00:32:07;;;;;;;18.42;6.93;;;;;;;;;;4934030;29;20040;-65
2021/04/05 00:34:32;;;;;;;21.67;6.22;;;;;;;;;;4935999;29;20042;-65
2021/04/05 00:36:57;;;;;;;8.82;5.72;;;;;;;;;;4934057;29;20115;-65
2021/04/05 00:39:23;;;;;;;17.00;5.90;;;;;;;;;;4935124;29;20020;-65
2021/04/05 00:41:48;;;;;;;13.48;6.40;;;;;;;;;;4935658;29;20040;-65
2021/04/05 00:44:13;;;;;;;10.75;4.78;;;;;;;;;;4934054;29;20023;-65
2021/04/05 00:46:39;;;;;;;11.27;5.95;;;;;;;;;;4932955;29;20111;-65
2021/04/05 00:49:04;;;;;;;9.82;5.13;;;;;;;;;;4932617;29;20083;-65
2021/04/05 00:51:30;;;;;;;10.50;5.28;;;;;;;;;;4933448;29;20686;-65
2021/04/05 00:53:55;;;;;;;20.48;5.47;;;;;;;;;;4933835;29;20375;-65
2021/04/05 00:56:22;;;;;;;9.82;5.63;;;;;;;;;;4936052;29;20023;-65
2021/04/05 00:58:48;;;;;;;5.72;3.25;;;;;;;;;;4935250;29;20462;-65
2021/04/05 01:01:16;;;;;;;9.50;4.47;;;;;;;;;;4933124;29;20027;-68
2021/04/05 01:03:43;;;;;;;8.88;5.32;;;;;;;;;;4933155;29;20183;-68
2021/04/05 01:06:13;;;;;;;6.90;4.18;;;;;;;;;;4934529;29;20031;-69
2021/04/05 01:08:38;;;;;;;8.00;5.50;;;;;;;;;;4933724;29;20035;-68
2021/04/05 01:11:04;;;;;;;6.05;4.45;;;;;;;;;;4936585;29;20036;-68
2021/04/05 01:13:30;;;;;;;4.53;3.45;;;;;;;;;;4940179;28;20043;-68
2021/04/05 01:15:55;;;;;;;11.18;6.10;;;;;;;;;;4937996;29;20052;-68
2021/04/05 01:18:21;;;;;;;14.65;4.93;;;;;;;;;;4941106;29;20069;-68
2021/04/05 01:20:46;;;;;;;7.20;4.45;;;;;;;;;;4938413;28;20062;-68
2021/04/05 01:23:12;;;;;;;23.33;6.35;;;;;;;;;;4936692;29;20043;-68
2021/04/05 01:25:37;;;;;;;10.57;6.28;;;;;;;;;;4936667;29;20023;-68
2021/04/05 01:28:03;;;;;;;10.88;4.85;;;;;;;;;;4940635;29;20039;-68
2021/04/05 01:30:33;;;;;;;7.68;4.63;;;;;;;;;;4935868;28;20395;-68
2021/04/05 01:33:08;;;;;;;8.10;5.05;;;;;;;;;;4937919;29;20078;-68
2021/04/05 01:35:44;;;;;;;6.35;4.15;;;;;;;;;;4937940;28;20219;-68
2021/04/05 01:38:11;;;;;;;6.63;4.30;;;;;;;;;;4938748;29;20042;-68
2021/04/05 01:40:37;;;;;;;22.00;7.07;;;;;;;;;;4933186;29;20550;-68
2021/04/05 01:43:02;;;;;;;11.43;6.10;;;;;;;;;;4936037;29;20479;-68
2021/04/05 01:45:28;;;;;;;8.95;5.28;;;;;;;;;;4942117;28;20029;-68
2021/04/05 01:47:53;;;;;;;15.43;6.68;;;;;;;;;;4935434;29;20028;-68
2021/04/05 01:50:19;;;;;;;16.38;5.35;;;;;;;;;;4939736;29;20115;-68
2021/04/05 01:52:44;;;;;;;8.95;5.03;;;;;;;;;;4935600;28;20031;-68
2021/04/05 01:55:09;;;;;;;12.70;5.30;;;;;;;;;;4940555;29;20024;-68
2021/04/05 01:57:35;;;;;;;19.65;6.10;;;;;;;;;;4939225;29;20034;-68
2021/04/05 02:00:01;;;;;;;9.45;5.40;;;;;;;;;;4937497;29;20032;-68
2021/04/05 02:02:27;;;;;;;12.38;5.00;;;;;;;;;;4940089;28;20066;-68
2021/04/05 02:04:53;;;;;;;14.82;5.93;;;;;;;;;;4936980;29;20419;-68
2021/04/05 02:07:19;;;;;;;10.38;6.53;;;;;;;;;;4941614;29;20058;-68
2021/04/05 02:09:44;;;;;;;9.38;7.43;;;;;;;;;;4939189;28;20054;-68
2021/04/05 02:12:09;;;;;;;14.10;6.85;;;;;;;;;;4940242;29;20054;-69
2021/04/05 02:14:35;;;;;;;15.70;7.07;;;;;;;;;;4934300;28;20083;-69
2021/04/05 02:17:00;;;;;;;6.10;5.50;;;;;;;;;;4934811;29;20367;-68
2021/04/05 02:19:25;;;;;;;11.68;4.80;;;;;;;;;;4942019;28;20062;-68
2021/04/05 02:21:52;;;;;;;7.32;5.53;;;;;;;;;;4938623;28;20039;-68
2021/04/05 02:24:18;;;;;;;7.93;5.65;;;;;;;;;;4941194;29;20039;-68
2021/04/05 02:26:45;;;;;;;14.80;4.55;;;;;;;;;;4932228;28;20044;-68
2021/04/05 02:29:11;;;;;;;15.80;6.30;;;;;;;;;;4938083;29;20461;-68
2021/04/05 02:31:36;;;;;;;13.60;6.97;;;;;;;;;;4938369;28;20076;-68
2021/04/05 02:34:02;;;;;;;14.90;6.30;;;;;;;;;;4936953;29;20035;-69
2021/04/05 02:36:29;;;;;;;12.63;5.18;;;;;;;;;;4941123;28;20363;-68
2021/04/05 02:38:55;;;;;;;21.63;5.50;;;;;;;;;;4938313;29;20038;-68
2021/04/05 02:41:21;;;;;;;10.80;6.00;;;;;;;;;;4936340;29;20420;-68
2021/04/05 02:43:48;;;;;;;18.42;6.47;;;;;;;;;;4937425;28;20027;-68
2021/04/05 02:46:20;;;;;;;8.48;4.68;;;;;;;;;;4938216;29;20058;-68
2021/04/05 02:48:48;;;;;;;12.80;5.85;;;;;;;;;;4939087;28;20154;-68
2021/04/05 02:51:13;;;;;;;9.48;6.18;;;;;;;;;;4937558;29;20399;-68
2021/04/05 02:53:43;;;;;;;21.30;6.28;;;;;;;;;;4935023;28;20034;-68
2021/04/05 02:56:09;;;;;;;9.52;5.35;;;;;;;;;;4939416;29;20024;-68
2021/04/05 02:58:38;;;;;;;9.85;5.38;;;;;;;;;;4940726;28;20042;-68
2021/04/05 03:01:04;;;;;;;11.63;6.60;;;;;;;;;;4940990;29;20036;-68
2021/04/05 03:03:29;;;;;;;13.95;6.57;;;;;;;;;;4936535;28;20059;-68
2021/04/05 03:05:54;;;;;;;14.88;6.13;;;;;;;;;;4938496;29;20032;-68
2021/04/05 03:08:20;;;;;;;6.88;5.15;;;;;;;;;;4940879;29;20043;-68
2021/04/05 03:10:46;;;;;;;14.55;5.97;;;;;;;;;;4935412;29;20035;-68
2021/04/05 03:13:11;;;;;;;9.07;5.45;;;;;;;;;;4938948;29;20039;-68
2021/04/05 03:15:37;;;;;;;17.13;5.00;;;;;;;;;;4939981;28;20034;-69
2021/04/05 03:18:04;;;;;;;13.25;4.85;;;;;;;;;;4938957;29;20386;-68
2021/04/05 03:20:31;;;;;;;8.55;5.38;;;;;;;;;;4938616;28;20775;-68
2021/04/05 03:22:56;;;;;;;10.43;4.15;;;;;;;;;;4938501;29;20074;-68
2021/04/05 03:25:22;;;;;;;7.30;4.60;;;;;;;;;;4939913;29;20163;-69
2021/04/05 03:27:48;;;;;;;10.98;4.95;;;;;;;;;;4940813;28;20035;-68
2021/04/05 03:30:34;;;;;;;9.50;5.85;;;;;;;;;;4939579;29;20024;-68
2021/04/05 03:33:04;;;;;;;9.15;5.45;;;;;;;;;;4934678;29;20069;-68
2021/04/05 03:35:31;;;;;;;7.68;5.75;;;;;;;;;;4940794;28;20026;-68
2021/04/05 03:37:57;;;;;;;9.82;6.80;;;;;;;;;;4938507;29;20122;-68
2021/04/05 03:40:23;;;;;;;11.65;6.55;;;;;;;;;;4939029;29;20055;-68
2021/04/05 03:42:55;;;;;;;15.50;7.18;;;;;;;;;;4937254;28;20058;-68
2021/04/05 03:45:20;;;;;;;14.18;7.82;;;;;;;;;;4936466;29;20027;-68
2021/04/05 03:47:52;;;;;;;8.32;5.90;;;;;;;;;;4936035;28;20501;-69
2021/04/05 03:50:24;;;;;;;17.77;6.38;;;;;;;;;;4942294;29;20030;-69
2021/04/05 03:52:52;;;;;;;14.82;5.93;;;;;;;;;;4941924;28;20037;-69
2021/04/05 03:55:20;;;;;;;8.90;5.82;;;;;;;;;;4939604;29;20153;-69
2021/04/05 03:57:48;;;;;;;10.20;6.50;;;;;;;;;;4942160;28;20122;-69
2021/04/05 04:00:14;;;;;;;8.82;6.07;;;;;;;;;;4943238;29;20771;-69
2021/04/05 04:02:46;;;;;;;18.88;7.30;;;;;;;;;;4942939;28;20039;-68
2021/04/05 04:05:32;;;;;;;15.05;7.57;;;;;;;;;;4943055;29;20078;-69
2021/04/05 04:08:04;;;;;;;13.05;6.47;;;;;;;;;;4938117;29;20090;-69
2021/04/05 04:10:31;;;;;;;13.48;6.55;;;;;;;;;;4940903;29;20042;-69
2021/04/05 04:12:57;;;;;;;22.38;7.07;;;;;;;;;;4941490;29;20509;-69
2021/04/05 04:15:23;;;;;;;11.85;6.03;;;;;;;;;;4944353;29;20157;-69
2021/04/05 04:17:50;;;;;;;12.63;6.93;;;;;;;;;;4941479;28;20115;-68
2021/04/05 04:20:16;;;;;;;9.15;4.88;;;;;;;;;;4943267;29;20024;-69
2021/04/05 04:22:45;;;;;;;9.82;5.38;;;;;;;;;;4940340;28;20031;-69
2021/04/05 04:25:11;;;;;;;6.22;4.88;;;;;;;;;;4942718;29;20787;-69
2021/04/05 04:27:37;;;;;;;11.73;6.90;;;;;;;;;;4941503;28;20035;-64
2021/04/05 04:30:03;;;;;;;8.50;4.15;;;;;;;;;;4942547;29;20026;-63
2021/04/05 04:32:29;;;;;;;5.85;5.13;;;;;;;;;;4942855;28;20019;-64
2021/04/05 04:34:55;;;;;;;7.82;5.75;;;;;;;;;;4942186;29;20479;-63
2021/04/05 04:37:21;;;;;;;9.50;4.78;;;;;;;;;;4943494;29;20518;-63
2021/04/05 04:39:46;;;;;;;15.02;6.57;;;;;;;;;;4942368;28;20118;-63
2021/04/05 04:42:11;;;;;;;7.65;4.30;;;;;;;;;;4942610;29;20031;-64
2021/04/05 04:44:37;;;;;;;12.93;6.35;;;;;;;;;;4943744;28;20435;-64
2021/04/05 04:47:03;;;;;;;12.00;5.75;;;;;;;;;;4942526;29;20039;-64
2021/04/05 04:49:28;;;;;;;6.10;4.97;;;;;;;;;;4944339;28;20031;-64
2021/04/05 04:51:54;;;;;;;17.40;6.20;;;;;;;;;;4937828;29;20028;-64
2021/04/05 04:54:19;;;;;;;11.88;7.10;;;;;;;;;;4943747;29;20042;-63
2021/04/05 04:56:44;;;;;;;5.63;4.22;;;;;;;;;;4942488;28;20030;-63
2021/04/05 04:59:10;;;;;;;7.55;5.93;;;;;;;;;;4942619;28;20139;-63
2021/04/05 05:01:37;;;;;;;6.72;4.20;;;;;;;;;;4943324;28;20419;-64
2021/04/05 05:04:05;;;;;;;8.27;5.45;;;;;;;;;;4941856;29;20051;-64
2021/04/05 05:06:31;;;;;;;8.25;4.22;;;;;;;;;;4943494;28;20089;-64
2021/04/05 05:08:57;;;;;;;11.70;6.95;;;;;;;;;;4937502;29;20036;-63
2021/04/05 05:11:23;;;;;;;10.50;4.65;;;;;;;;;;4939703;29;20037;-63
2021/04/05 05:13:49;;;;;;;21.27;7.10;;;;;;;;;;4938791;28;20031;-63
2021/04/05 05:16:15;;;;;;;9.60;5.97;;;;;;;;;;4941632;29;20028;-64
2021/04/05 05:18:40;;;;;;;12.07;5.70;;;;;;;;;;4941377;28;20031;-64
2021/04/05 05:21:08;;;;;;;10.18;6.38;;;;;;;;;;4941960;29;20027;-64
2021/04/05 05:23:35;;;;;;;13.57;8.20;;;;;;;;;;4939522;28;20027;-64
2021/04/05 05:26:02;;;;;;;8.02;6.22;;;;;;;;;;4941038;29;20055;-63
2021/04/05 05:28:27;;;;;;;10.45;6.25;;;;;;;;;;4942162;28;20143;-64
2021/04/05 05:30:53;;;;;;;8.70;5.90;;;;;;;;;;4941166;29;20118;-63
2021/04/05 05:33:19;;;;;;;10.27;6.57;;;;;;;;;;4937873;29;20352;-65
2021/04/05 05:35:44;;;;;;;8.75;5.68;;;;;;;;;;4939309;28;20034;-63
2021/04/05 05:38:11;;;;;;;9.20;5.50;;;;;;;;;;4936965;29;20051;-63
2021/04/05 05:40:39;;;;;;;10.20;6.93;;;;;;;;;;4941304;28;20027;-63
2021/04/05 05:43:28;;;;;;;5.78;5.13;;;;;;;;;;4940354;29;20046;-64
2021/04/05 05:45:56;;;;;;;8.65;4.43;;;;;;;;;;4939788;29;20024;-64
2021/04/05 05:48:24;;;;;;;12.32;6.25;;;;;;;;;;4939733;29;20443;-64
2021/04/05 05:51:06;;;;;;;6.80;5.05;;;;;;;;;;4940349;28;20486;-64
2021/04/05 05:53:31;;;;;;;;;;;;;;;;;;4943383;29;20035;-64
2021/04/05 05:56:11;;;;;;;8.13;5.07;;;;;;;;;;4935629;29;19915;-64
2021/04/05 05:58:44;;;;;;;13.80;5.00;;;;;;;;;;4935676;29;20035;-64
2021/04/05 06:01:28;;;;;;;16.45;5.95;;;;;;;;;;4942229;29;20106;-63
2021/04/05 06:03:56;;;;;;;13.82;5.13;;;;;;;;;;4936493;29;20063;-64
2021/04/05 06:06:40;;;;;;;17.27;6.68;;;;;;;;;;4938861;29;20478;-64
2021/04/05 06:09:27;;;;;;;8.38;5.57;;;;;;;;;;4936351;29;20642;-63
2021/04/05 06:12:10;;;;;;;10.00;4.18;;;;;;;;;;4941480;28;20079;-64
2021/04/05 06:14:46;;;;;;;6.40;5.63;;;;;;;;;;4939108;28;20051;-64
2021/04/05 06:17:14;;;;;;;8.80;5.13;;;;;;;;;;4939515;29;20027;-64
2021/04/05 06:19:45;;;;;;;12.95;5.75;;;;;;;;;;4942916;28;20023;-63
2021/04/05 06:22:40;;;;;;;7.70;5.50;;;;;;;;;;4940548;29;20065;-63
2021/04/05 06:25:10;;;;;;;15.25;6.72;;;;;;;;;;4943011;29;20012;-64
2021/04/05 06:27:46;;;;;;;9.13;5.93;;;;;;;;;;4941946;28;20031;-63
2021/04/05 06:30:38;;;;;;;11.75;5.45;;;;;;;;;;4941790;29;20507;-63
2021/04/05 06:33:15;;;;;;;5.85;4.53;;;;;;;;;;4916536;29;20048;-63
2021/04/05 06:35:58;;;;;;;8.20;5.70;;;;;;;;;;4939720;28;20037;-64
2021/04/05 06:38:27;;;;;;;15.90;7.75;;;;;;;;;;4935083;29;20098;-63
2021/04/05 06:40:56;;;;;;;7.18;6.18;;;;;;;;;;4935992;29;20059;-63
2021/04/05 06:43:21;;;;;;;7.78;6.75;;;;;;;;;;4942158;29;20110;-63
2021/04/05 06:45:56;;;;;;;11.98;7.80;;;;;;;;;;4940498;28;20268;-63
2021/04/05 06:48:37;;;;;;;12.10;7.32;;;;;;;;;;4942809;29;20042;-64
2021/04/05 06:51:08;;;;;;;11.70;6.57;;;;;;;;;;4936492;29;20031;-64
2021/04/05 06:53:33;;;;;;;20.67;13.27;;;;;;;;;;4936667;29;20375;-63
2021/04/05 06:56:02;;;;;;;13.80;8.90;;;;;;;;;;4939025;29;20051;-63
2021/04/05 06:58:36;;;;;;;14.80;7.25;;;;;;;;;;4941470;28;20031;-64
2021/04/05 07:01:37;;;;;;;12.90;7.20;;;;;;;;;;4941968;29;20529;-64
2021/04/05 07:04:14;;;;;;;15.48;9.52;;;;;;;;;;4886072;29;20647;-64
2021/04/05 07:06:50;;;;;;;10.45;6.97;;;;;;;;;;4933450;29;20435;-63
2021/04/05 07:09:18;;;;;;;21.83;10.07;;;;;;;;;;4941382;29;20027;-64
2021/04/05 07:11:44;;;;;;;10.80;6.13;;;;;;;;;;4935711;29;20031;-63
2021/04/05 07:14:28;;;;;;;14.55;7.13;;;;;;;;;;4940570;29;20497;-63
2021/04/05 07:17:09;;;;;;;17.13;8.65;;;;;;;;;;4932781;29;20035;-63
2021/04/05 07:19:41;;;;;;;18.63;8.93;;;;;;;;;;4939260;29;20109;-64
2021/04/05 07:22:24;;;;;;;14.75;8.30;;;;;;;;;;4934293;28;20472;-63
2021/04/05 07:24:50;;;;;;;16.95;9.43;;;;;;;;;;4943378;28;20035;-63
2021/04/05 07:27:54;;;;;;;22.27;9.18;;;;;;;;;;4940181;29;20379;-62
2021/04/05 07:30:45;;;;;;;14.25;7.72;;;;;;;;;;4866066;29;20048;-66
2021/04/05 07:33:10;;;;;;;;;;;;;;;;;;4862069;29;20038;-66
2021/04/05 07:36:08;;;;;;;10.68;8.35;;;;;;;;;;4914282;28;19918;-66
2021/04/05 07:39:00;;;;;;;13.52;11.52;;;;;;;;;;4928012;29;20038;-66
2021/04/05 07:41:44;;;;;;;26.00;12.10;;;;;;;;;;4942816;29;20027;-66
2021/04/05 07:44:32;;;;;;;15.80;9.52;;;;;;;;;;4939910;29;20390;-66
2021/04/05 07:47:16;;;;;;;14.40;11.73;;;;;;;;;;4912506;29;20096;-65
2021/04/05 07:49:45;;;;;;;20.95;11.45;;;;;;;;;;4931781;29;20040;-66
2021/04/05 07:52:21;;;;;;;31.05;13.88;;;;;;;;;;4942531;29;20035;-66
2021/04/05 07:54:46;;;;;;;26.70;15.70;;;;;;;;;;4942493;28;20744;-66
2021/04/05 07:57:28;;;;;;;19.75;13.63;;;;;;;;;;4938618;29;20066;-66
2021/04/05 07:59:53;;;;;;;;;;;;;;;;;;4938198;29;20035;-66
2021/04/05 08:02:37;;;;;;;19.43;9.50;;;;;;;;;;4943463;29;19910;-69
2021/04/05 08:05:20;;;;;;;11.45;10.20;;;;;;;;;;4930071;29;20287;-67
2021/04/05 08:07:49;;;;;;;8.70;7.28;;;;;;;;;;4935010;29;20035;-68
2021/04/05 08:10:20;;;;;;;19.20;8.25;;;;;;;;;;4942160;29;20046;-68
2021/04/05 08:12:45;;;;;;;;;;;;;;;;;;4937279;29;20015;-68
2021/04/05 08:15:20;;;;;;;13.95;8.98;;;;;;;;;;4942256;29;19918;-68
2021/04/05 08:17:48;;;;;;;9.43;8.45;;;;;;;;;;4942045;29;20419;-68
2021/04/05 08:20:35;;;;;;;10.70;7.10;;;;;;;;;;4944149;28;20036;-68
2021/04/05 08:23:16;;;;;;;12.75;9.00;;;;;;;;;;4931033;29;20047;-67
2021/04/05 08:26:00;;;;;;;18.17;7.00;;;;;;;;;;4935165;29;20483;-68
2021/04/05 08:28:48;;;;;;;12.80;8.75;;;;;;;;;;4939330;29;20059;-67
2021/04/05 08:31:20;;;;;;;15.27;9.57;;;;;;;;;;4920171;29;20039;-68
2021/04/05 08:33:54;;;;;;;15.75;8.75;;;;;;;;;;4940537;28;20095;-68
2021/04/05 08:36:38;;;;;;;18.80;9.35;;;;;;;;;;4938824;29;20023;-67
2021/04/05 08:39:03;;;;;;;21.10;6.50;;;;;;;;;;4936278;29;20031;-67
2021/04/05 08:41:34;;;;;;;9.60;6.28;;;;;;;;;;4943161;28;20023;-68
2021/04/05 08:44:03;;;;;;;12.40;6.68;;;;;;;;;;4939798;29;20039;-68
2021/04/05 08:46:32;;;;;;;5.47;4.40;;;;;;;;;;4943232;28;20032;-67
2021/04/05 08:48:59;;;;;;;8.00;7.18;;;;;;;;;;4940264;29;20039;-67
2021/04/05 08:51:44;;;;;;;14.05;7.97;;;;;;;;;;4938737;29;20085;-68
2021/04/05 08:54:11;;;;;;;13.40;8.55;;;;;;;;;;4938375;29;20399;-68
2021/04/05 08:56:58;;;;;;;8.90;5.50;;;;;;;;;;4942127;28;20044;-68
2021/04/05 08:59:30;;;;;;;15.85;5.88;;;;;;;;;;4940935;29;20040;-68
2021/04/05 09:02:10;;;;;;;18.80;6.25;;;;;;;;;;4936133;29;20069;-67
2021/04/05 09:04:36;;;;;;;19.20;7.05;;;;;;;;;;4926319;29;20122;-68
2021/04/05 09:07:19;;;;;;;19.05;6.43;;;;;;;;;;4932413;29;20115;-68
2021/04/05 09:09:47;;;;;;;10.98;6.05;;;;;;;;;;4937509;28;20123;-68
2021/04/05 09:12:13;;;;;;;20.42;5.88;;;;;;;;;;4940155;29;20408;-68
2021/04/05 09:15:10;;;;;;;11.88;6.47;;;;;;;;;;4942036;28;20038;-67
2021/04/05 09:17:54;;;;;;;4.93;2.75;;;;;;;;;;4925728;29;20046;-68
2021/04/05 09:20:25;;;;;;;15.35;6.95;;;;;;;;;;4941365;29;20086;-66
2021/04/05 09:23:02;;;;;;;11.25;5.43;;;;;;;;;;4936238;28;20102;-67
2021/04/05 09:25:46;;;;;;;7.47;5.72;;;;;;;;;;4941521;29;20047;-67
2021/04/05 09:28:14;;;;;;;11.32;6.07;;;;;;;;;;4939838;29;20028;-67
2021/04/05 09:30:54;;;;;;;17.45;5.47;;;;;;;;;;4940845;28;20039;-67
2021/04/05 09:33:25;;;;;;;5.00;3.38;;;;;;;;;;4939754;29;20023;-67
2021/04/05 09:35:56;;;;;;;13.90;4.45;;;;;;;;;;4939670;28;20106;-68
2021/04/05 09:38:22;;;;;;;;;;;;;;;;;;4937539;29;20028;-67
2021/04/05 09:41:09;;;;;;;3.67;2.43;;;;;;;;;;4937768;28;19915;-68
2021/04/05 09:43:47;;;;;;;5.65;3.90;;;;;;;;;;4934104;29;20047;-67
2021/04/05 09:46:30;;;;;;;7.78;3.97;;;;;;;;;;4939830;28;20063;-67
2021/04/05 09:49:08;;;;;;;6.35;3.15;;;;;;;;;;4936132;29;20076;-67
2021/04/05 09:51:37;;;;;;;6.40;3.90;;;;;;;;;;4941585;28;20386;-67
2021/04/05 09:54:17;;;;;;;8.40;2.80;;;;;;;;;;4937425;29;20478;-66
2021/04/05 09:56:48;;;;;;;15.45;2.28;;;;;;;;;;4938109;28;20126;-65
2021/04/05 09:59:16;;;;;;;6.72;2.53;;;;;;;;;;4934293;29;20031;-66
2021/04/05 10:01:42;;;;;;;2.67;1.73;;;;;;;;;;4940318;28;20031;-65
2021/04/05 10:04:10;;;;;;;4.82;3.13;;;;;;;;;;4940198;29;20054;-65
2021/04/05 10:06:36;;;;;;;2.80;1.95;;;;;;;;;;4939126;28;20047;-65
2021/04/05 10:09:05;;;;;;;10.30;3.17;;;;;;;;;;4936252;29;20352;-65
2021/04/05 10:11:49;;;;;;;16.88;3.85;;;;;;;;;;4941695;28;20113;-65
2021/04/05 10:14:15;;;;;;;4.80;3.55;;;;;;;;;;4938184;29;20530;-65
2021/04/05 10:16:52;;;;;;;4.75;2.67;;;;;;;;;;5098114;27;20346;-64
2021/04/05 10:19:22;;;;;;;3.97;1.95;;;;;;;;;;5095226;28;20429;-65
2021/04/05 10:21:51;;;;;;;2.15;1.50;;;;;;;;;;5097988;28;20059;-67
2021/04/05 10:24:20;;;;;;;7.95;3.13;;;;;;;;;;5090200;28;20032;-67
2021/04/05 10:26:47;;;;;;;6.43;2.75;;;;;;;;;;5097495;28;20032;-66
2021/04/05 10:29:14;;;;;;;6.50;4.20;;;;;;;;;;5093078;28;20023;-67
2021/04/05 10:31:41;;;;;;;5.90;3.35;;;;;;;;;;5093798;28;20078;-66
2021/04/05 10:34:07;;;;;;;3.55;2.25;;;;;;;;;;5089296;28;20019;-67
2021/04/05 10:36:54;;;;;;;8.23;4.10;;;;;;;;;;5094092;28;20436;-68
2021/04/05 10:39:21;;;;;;;5.15;3.00;;;;;;;;;;5094429;28;20028;-66
2021/04/05 10:41:58;;;;;;;4.70;3.30;;;;;;;;;;5097324;28;20135;-65
2021/04/05 10:44:24;;;;;;;13.57;4.32;;;;;;;;;;5094536;28;20020;-66
2021/04/05 10:46:54;;;;;;;10.68;5.57;;;;;;;;;;5097414;28;20078;-66
2021/04/05 10:49:23;;;;;;;6.03;3.05;;;;;;;;;;5090896;28;20028;-66
2021/04/05 10:51:51;;;;;;;4.97;2.85;;;;;;;;;;5086798;28;20075;-66
2021/04/05 10:54:25;;;;;;;13.50;5.55;;;;;;;;;;5090974;28;20031;-66
2021/04/05 10:56:53;;;;;;;8.73;6.45;;;;;;;;;;5097799;28;20493;-67
2021/04/05 10:59:21;;;;;;;7.60;4.18;;;;;;;;;;5094963;28;20027;-66
2021/04/05 11:01:50;;;;;;;6.03;3.63;;;;;;;;;;5092662;28;20054;-67
2021/04/05 11:04:17;;;;;;;16.23;5.43;;;;;;;;;;5088918;28;20017;-67
2021/04/05 11:06:43;;;;;;;6.60;3.78;;;;;;;;;;5084518;28;20055;-66
2021/04/05 11:09:09;;;;;;;10.20;4.07;;;;;;;;;;5088366;28;20060;-67
2021/04/05 11:11:37;;;;;;;6.95;3.42;;;;;;;;;;5082587;28;20043;-66
2021/04/05 11:14:03;;;;;;;4.72;3.67;;;;;;;;;;5088162;28;20463;-65
2021/04/05 11:16:29;;;;;;;5.90;3.20;;;;;;;;;;5086708;28;20055;-63
2021/04/05 11:18:57;;;;;;;10.77;4.68;;;;;;;;;;5093842;28;20081;-65
2021/04/05 11:21:25;;;;;;;12.90;3.65;;;;;;;;;;5088038;28;20020;-64
2021/04/05 11:23:54;;;;;;;5.85;2.42;;;;;;;;;;5091947;28;20024;-67
2021/04/05 11:26:26;;;;;;;8.23;3.58;;;;;;;;;;5085942;28;20037;-67
2021/04/05 11:28:52;;;;;;;13.98;3.75;;;;;;;;;;5083398;28;20023;-64
2021/04/05 11:31:19;;;;;;;8.00;3.65;;;;;;;;;;5080377;28;20046;-66
2021/04/05 11:33:55;;;;;;;7.72;4.65;;;;;;;;;;5081872;28;20068;-66
2021/04/05 11:36:20;;;;;;;10.80;4.07;;;;;;;;;;5076511;28;20090;-65
2021/04/05 11:38:48;;;;;;;12.57;5.18;;;;;;;;;;5072898;28;20020;-66
2021/04/05 11:41:14;;;;;;;8.85;3.03;;;;;;;;;;5069181;28;20036;-66
2021/04/05 11:43:42;;;;;;;13.27;3.80;;;;;;;;;;5069566;28;20176;-66
2021/04/05 11:46:09;;;;;;;9.82;3.85;;;;;;;;;;5070743;28;20036;-66
2021/04/05 11:48:34;;;;;;;9.07;4.20;;;;;;;;;;5069242;28;20451;-65
2021/04/05 11:51:00;;;;;;;5.07;3.40;;;;;;;;;;5069548;28;20082;-66
2021/04/05 11:53:32;;;;;;;6.78;2.55;;;;;;;;;;5068802;28;20028;-66
2021/04/05 11:56:03;;;;;;;5.78;3.08;;;;;;;;;;5067556;28;20763;-65
2021/04/05 11:58:31;;;;;;;6.85;3.50;;;;;;;;;;5069230;28;20012;-65
2021/04/05 12:01:02;;;;;;;10.55;4.20;;;;;;;;;;5069435;28;20025;-64
2021/04/05 12:03:27;;;;;;;;;;;;;;;;;;5069746;28;20017;-65
2021/04/05 12:06:02;;;;;;;7.93;2.63;;;;;;;;;;5069123;28;19939;-65
2021/04/05 12:08:33;;;;;;;6.57;3.10;;;;;;;;;;5069134;28;20021;-65
2021/04/05 12:11:04;;;;;;;7.25;2.75;;;;;;;;;;5072436;28;20055;-65
2021/04/05 12:13:38;;;;;;;10.95;3.38;;;;;;;;;;5067368;28;20031;-65
2021/04/05 12:16:04;;;;;;;5.55;2.38;;;;;;;;;;5070511;28;20100;-65
2021/04/05 12:18:29;;;;;;;8.30;3.70;;;;;;;;;;5067168;28;20021;-66
2021/04/05 12:20:58;;;;;;;13.13;3.47;;;;;;;;;;5068898;28;20116;-65
2021/04/05 12:23:24;;;;;;;4.57;2.05;;;;;;;;;;5065506;28;20467;-65
2021/04/05 12:25:51;;;;;;;4.95;1.92;;;;;;;;;;5068983;28;20094;-66
2021/04/05 12:28:17;;;;;;;7.18;2.95;;;;;;;;;;5069665;28;20017;-66
2021/04/05 12:30:43;;;;;;;7.13;3.83;;;;;;;;;;5066112;28;20056;-66
2021/04/05 12:33:15;;;;;;;11.55;4.68;;;;;;;;;;5070117;28;20028;-66
2021/04/05 12:35:41;;;;;;;6.43;2.85;;;;;;;;;;5071250;28;20409;-66
2021/04/05 12:38:07;;;;;;;5.55;3.47;;;;;;;;;;5068597;28;20103;-65
2021/04/05 12:40:36;;;;;;;11.05;3.92;;;;;;;;;;5068505;28;20108;-65
2021/04/05 12:43:04;;;;;;;6.28;3.33;;;;;;;;;;5072420;28;20091;-65
2021/04/05 12:45:30;;;;;;;10.60;3.47;;;;;;;;;;5079368;28;20043;-65
2021/04/05 12:47:56;;;;;;;6.05;1.58;;;;;;;;;;5078100;28;20114;-65
2021/04/05 12:50:22;;;;;;;10.43;3.45;;;;;;;;;;5072355;28;20111;-65
2021/04/05 12:52:48;;;;;;;12.63;3.80;;;;;;;;;;5081164;28;20578;-66
2021/04/05 12:55:18;;;;;;;8.10;2.88;;;;;;;;;;5080290;28;20119;-65
2021/04/05 12:57:43;;;;;;;1.92;1.10;;;;;;;;;;5080878;28;20017;-65
2021/04/05 13:00:21;;;;;;;5.38;2.53;;;;;;;;;;5072610;28;20032;-65
2021/04/05 13:02:50;;;;;;;5.18;2.15;;;;;;;;;;5071471;28;20028;-65
2021/04/05 13:05:16;;;;;;;11.25;2.03;;;;;;;;;;5068320;28;20032;-65
2021/04/05 13:08:10;;;;;;;8.18;4.05;;;;;;;;;;5074790;28;20482;-65
2021/04/05 13:10:38;;;;;;;6.20;3.13;;;;;;;;;;5033637;28;20049;-65
2021/04/05 13:13:08;;;;;;;7.28;1.27;;;;;;;;;;5065718;28;20475;-65
2021/04/05 13:15:35;;;;;;;4.68;1.83;;;;;;;;;;5067940;28;20048;-64
2021/04/05 13:18:11;;;;;;;9.30;3.33;;;;;;;;;;5064608;28;20036;-64
2021/04/05 13:20:39;;;;;;;3.30;1.50;;;;;;;;;;5066491;28;20036;-65
2021/04/05 13:23:06;;;;;;;9.80;3.25;;;;;;;;;;5067467;28;20013;-65
2021/04/05 13:25:33;;;;;;;12.23;2.90;;;;;;;;;;5065836;28;20045;-65
2021/04/05 13:28:00;;;;;;;3.10;1.98;;;;;;;;;;5065436;28;20508;-66
2021/04/05 13:30:33;;;;;;;16.80;4.00;;;;;;;;;;5067082;28;20020;-66
2021/04/05 13:33:00;;;;;;;9.05;2.85;;;;;;;;;;5065558;28;20079;-66
2021/04/05 13:35:27;;;;;;;4.18;2.38;;;;;;;;;;5066213;28;20036;-65
2021/04/05 13:37:54;;;;;;;8.13;2.05;;;;;;;;;;5064952;28;20048;-66
2021/04/05 13:40:24;;;;;;;5.72;3.30;;;;;;;;;;5066148;28;20024;-67
2021/04/05 13:42:52;;;;;;;6.93;3.95;;;;;;;;;;5071358;28;20098;-67
2021/04/05 13:45:19;;;;;;;3.65;1.75;;;;;;;;;;5066031;28;20746;-66
2021/04/05 13:47:48;;;;;;;9.25;2.33;;;;;;;;;;5066592;28;20089;-67
2021/04/05 13:50:17;;;;;;;7.95;3.83;;;;;;;;;;5066583;28;20052;-67
2021/04/05 13:52:47;;;;;;;6.20;2.65;;;;;;;;;;5066218;28;20453;-66
2021/04/05 13:55:16;;;;;;;6.05;3.20;;;;;;;;;;5066261;28;20099;-66
2021/04/05 13:57:44;;;;;;;8.27;2.30;;;;;;;;;;5065213;28;20662;-67
2021/04/05 14:00:09;;;;;;;12.98;4.10;;;;;;;;;;5066326;28;20020;-66
2021/04/05 14:02:36;;;;;;;3.63;2.10;;;;;;;;;;5067112;28;20513;-67
2021/04/05 14:05:03;;;;;;;7.95;2.72;;;;;;;;;;5067281;28;20051;-66
2021/04/05 14:07:33;;;;;;;5.25;3.10;;;;;;;;;;5067121;28;20064;-67
2021/04/05 14:09:58;;;;;;;13.90;4.32;;;;;;;;;;5076211;28;20433;-66
2021/04/05 14:12:24;;;;;;;5.78;3.28;;;;;;;;;;5066739;28;20017;-66
2021/04/05 14:14:49;;;;;;;4.40;2.33;;;;;;;;;;5067584;28;20068;-66
2021/04/05 14:17:36;;;;;;;2.25;1.75;;;;;;;;;;5066681;28;20019;-67
2021/04/05 14:20:01;;;;;;;5.65;3.42;;;;;;;;;;5067232;28;20021;-67
2021/04/05 14:22:29;;;;;;;6.30;2.65;;;;;;;;;;5070118;28;20019;-67
2021/04/05 14:24:55;;;;;;;8.38;3.85;;;;;;;;;;5065509;28;20051;-66
2021/04/05 14:27:27;;;;;;;9.13;3.83;;;;;;;;;;5064853;28;20482;-66
2021/04/05 14:29:55;;;;;;;10.95;4.22;;;;;;;;;;5064926;28;20024;-66
2021/04/05 14:32:23;;;;;;;6.03;3.58;;;;;;;;;;5066980;28;20028;-66
2021/04/05 14:34:49;;;;;;;3.67;2.00;;;;;;;;;;5067510;28;20085;-67
2021/04/05 14:37:20;;;;;;;4.60;2.65;;;;;;;;;;5068311;28;20023;-66
2021/04/05 14:39:53;;;;;;;11.88;3.55;;;;;;;;;;5068330;28;20024;-66
2021/04/05 14:42:19;;;;;;;5.10;1.75;;;;;;;;;;5067393;28;20421;-66
2021/04/05 14:44:45;;;;;;;3.70;2.35;;;;;;;;;;5068470;28;20089;-67
2021/04/05 14:47:17;;;;;;;3.97;2.10;;;;;;;;;;5068887;28;20020;-67
2021/04/05 14:49:48;;;;;;;8.65;3.08;;;;;;;;;;5067433;28;20017;-67
2021/04/05 14:52:13;;;;;;;5.32;3.90;;;;;;;;;;5067860;28;20077;-67
2021/04/05 14:54:39;;;;;;;5.60;1.90;;;;;;;;;;5073700;28;20029;-67